sensor_id;sensor_type;location;lat;lon;timestamp;temperature;humidity
53926;DHT22;39836;52.754;6.866;2022-07-12T09:26:40;21.80;79.10
53926;DHT22;39836;52.754;6.866;2022-07-12T09:29:11;21.90;78.90
53926;DHT22;39836;52.754;6.866;2022-07-12T09:31:47;21.90;78.50
53926;DHT22;39836;52.754;6.866;2022-07-12T09:34:31;22.00;78.40
53926;DHT22;39836;52.754;6.866;2022-07-12T09:37:16;22.10;78.60
53926;DHT22;39836;52.754;6.866;2022-07-12T09:39:42;22.30;78.70
53926;DHT22;39836;52.754;6.866;2022-07-12T09:42:09;22.30;78.50
53926;DHT22;39836;52.754;6.866;2022-07-12T09:44:40;22.40;78.50
53926;DHT22;39836;52.754;6.866;2022-07-12T09:47:10;22.60;78.20
53926;DHT22;39836;52.754;6.866;2022-07-12T09:49:39;22.70;78.20
53926;DHT22;39836;52.754;6.866;2022-07-12T09:52:05;22.80;77.90
53926;DHT22;39836;52.754;6.866;2022-07-12T09:54:34;23.00;77.80
53926;DHT22;39836;52.754;6.866;2022-07-12T09:57:07;23.20;77.40
53926;DHT22;39836;52.754;6.866;2022-07-12T09:59:36;23.30;77.30
53926;DHT22;39836;52.754;6.866;2022-07-12T10:02:03;23.30;77.10
53926;DHT22;39836;52.754;6.866;2022-07-12T10:04:32;23.40;76.80
53926;DHT22;39836;52.754;6.866;2022-07-12T10:06:58;23.40;76.50
53926;DHT22;39836;52.754;6.866;2022-07-12T10:09:25;23.40;76.40
53926;DHT22;39836;52.754;6.866;2022-07-12T10:11:55;23.40;76.20
53926;DHT22;39836;52.754;6.866;2022-07-12T10:14:22;23.30;75.80
53926;DHT22;39836;52.754;6.866;2022-07-12T10:16:50;23.40;76.20
53926;DHT22;39836;52.754;6.866;2022-07-12T10:19:29;23.40;76.50
53926;DHT22;39836;52.754;6.866;2022-07-12T10:22:02;23.50;75.90
53926;DHT22;39836;52.754;6.866;2022-07-12T10:27:00;23.70;75.00
53926;DHT22;39836;52.754;6.866;2022-07-12T10:29:47;23.80;74.40
53926;DHT22;39836;52.754;6.866;2022-07-12T10:35:00;24.20;75.00
53926;DHT22;39836;52.754;6.866;2022-07-12T10:37:26;24.30;74.80
53926;DHT22;39836;52.754;6.866;2022-07-12T10:40:19;24.40;74.20
53926;DHT22;39836;52.754;6.866;2022-07-12T10:45:39;24.60;73.90
53926;DHT22;39836;52.754;6.866;2022-07-12T10:56:07;24.90;73.40
53926;DHT22;39836;52.754;6.866;2022-07-12T10:58:38;25.00;72.80
53926;DHT22;39836;52.754;6.866;2022-07-12T11:01:06;25.10;73.50
53926;DHT22;39836;52.754;6.866;2022-07-12T11:03:45;25.30;73.60
53926;DHT22;39836;52.754;6.866;2022-07-12T11:06:16;25.40;73.60
53926;DHT22;39836;52.754;6.866;2022-07-12T11:11:28;25.50;72.90
53926;DHT22;39836;52.754;6.866;2022-07-12T11:13:55;25.50;72.30
53926;DHT22;39836;52.754;6.866;2022-07-12T11:16:21;25.60;72.00
53926;DHT22;39836;52.754;6.866;2022-07-12T11:18:47;25.70;72.00
53926;DHT22;39836;52.754;6.866;2022-07-12T11:21:13;25.70;72.10
53926;DHT22;39836;52.754;6.866;2022-07-12T11:23:39;25.80;72.30
53926;DHT22;39836;52.754;6.866;2022-07-12T11:26:07;25.90;72.20
53926;DHT22;39836;52.754;6.866;2022-07-12T11:28:33;25.80;72.10
53926;DHT22;39836;52.754;6.866;2022-07-12T11:31:13;25.80;72.30
53926;DHT22;39836;52.754;6.866;2022-07-12T11:33:42;26.00;71.90
53926;DHT22;39836;52.754;6.866;2022-07-12T11:36:10;26.00;71.80
53926;DHT22;39836;52.754;6.866;2022-07-12T11:38:37;26.20;72.10
53926;DHT22;39836;52.754;6.866;2022-07-12T11:41:05;26.30;71.90
53926;DHT22;39836;52.754;6.866;2022-07-12T11:43:32;26.40;71.70
53926;DHT22;39836;52.754;6.866;2022-07-12T11:45:59;26.50;71.40
53926;DHT22;39836;52.754;6.866;2022-07-12T11:48:26;26.60;71.60
53926;DHT22;39836;52.754;6.866;2022-07-12T11:50:53;26.80;71.60
53926;DHT22;39836;52.754;6.866;2022-07-12T11:53:26;26.80;71.60
53926;DHT22;39836;52.754;6.866;2022-07-12T11:55:54;26.90;71.00
53926;DHT22;39836;52.754;6.866;2022-07-12T11:58:24;26.90;71.30
53926;DHT22;39836;52.754;6.866;2022-07-12T12:00:51;26.80;71.10
53926;DHT22;39836;52.754;6.866;2022-07-12T12:03:19;26.70;71.10
53926;DHT22;39836;52.754;6.866;2022-07-12T12:05:53;26.70;71.40
53926;DHT22;39836;52.754;6.866;2022-07-12T12:08:20;26.60;70.90
53926;DHT22;39836;52.754;6.866;2022-07-12T12:10:57;26.60;70.90
53926;DHT22;39836;52.754;6.866;2022-07-12T12:13:25;26.70;70.70
53926;DHT22;39836;52.754;6.866;2022-07-12T12:15:56;26.90;71.00
53926;DHT22;39836;52.754;6.866;2022-07-12T12:21:09;27.30;70.70
53926;DHT22;39836;52.754;6.866;2022-07-12T12:23:36;27.40;70.10
53926;DHT22;39836;52.754;6.866;2022-07-12T12:26:30;27.50;69.60
53926;DHT22;39836;52.754;6.866;2022-07-12T12:28:56;27.60;69.80
53926;DHT22;39836;52.754;6.866;2022-07-12T12:31:23;27.60;69.80
53926;DHT22;39836;52.754;6.866;2022-07-12T12:33:49;27.70;69.90
53926;DHT22;39836;52.754;6.866;2022-07-12T12:38:51;28.00;69.60
53926;DHT22;39836;52.754;6.866;2022-07-12T12:41:18;28.20;69.10
53926;DHT22;39836;52.754;6.866;2022-07-12T12:43:52;28.30;69.30
53926;DHT22;39836;52.754;6.866;2022-07-12T12:46:21;28.30;69.50
53926;DHT22;39836;52.754;6.866;2022-07-12T12:48:47;28.20;69.30
53926;DHT22;39836;52.754;6.866;2022-07-12T12:51:13;28.30;69.50
53926;DHT22;39836;52.754;6.866;2022-07-12T12:53:40;28.30;69.40
53926;DHT22;39836;52.754;6.866;2022-07-12T12:56:11;28.30;68.90
53926;DHT22;39836;52.754;6.866;2022-07-12T12:58:37;28.40;69.00
53926;DHT22;39836;52.754;6.866;2022-07-12T13:01:04;28.70;68.10
53926;DHT22;39836;52.754;6.866;2022-07-12T13:03:30;28.80;67.90
53926;DHT22;39836;52.754;6.866;2022-07-12T13:05:56;28.80;68.40
53926;DHT22;39836;52.754;6.866;2022-07-12T13:08:23;28.90;68.60
53926;DHT22;39836;52.754;6.866;2022-07-12T13:10:49;28.90;68.60
53926;DHT22;39836;52.754;6.866;2022-07-12T13:13:37;29.10;69.20
53926;DHT22;39836;52.754;6.866;2022-07-12T13:16:03;29.30;68.70
53926;DHT22;39836;52.754;6.866;2022-07-12T13:18:28;29.40;68.30
53926;DHT22;39836;52.754;6.866;2022-07-12T13:20:54;29.50;67.80
53926;DHT22;39836;52.754;6.866;2022-07-12T13:23:20;29.70;67.80
53926;DHT22;39836;52.754;6.866;2022-07-12T13:25:45;29.80;67.70
53926;DHT22;39836;52.754;6.866;2022-07-12T13:28:11;29.70;67.60
53926;DHT22;39836;52.754;6.866;2022-07-12T13:30:37;29.60;66.90
53926;DHT22;39836;52.754;6.866;2022-07-12T13:33:03;29.70;67.00
53926;DHT22;39836;52.754;6.866;2022-07-12T13:35:29;29.80;66.80
53926;DHT22;39836;52.754;6.866;2022-07-12T13:37:55;29.90;66.70
53926;DHT22;39836;52.754;6.866;2022-07-12T13:40:21;29.90;67.00
53926;DHT22;39836;52.754;6.866;2022-07-12T13:42:49;29.80;66.60
53926;DHT22;39836;52.754;6.866;2022-07-12T13:45:21;29.90;65.40
53926;DHT22;39836;52.754;6.866;2022-07-12T13:47:48;29.90;65.10
53926;DHT22;39836;52.754;6.866;2022-07-12T13:50:17;29.90;65.00
53926;DHT22;39836;52.754;6.866;2022-07-12T13:52:44;29.90;65.40
53926;DHT22;39836;52.754;6.866;2022-07-12T13:55:11;29.80;65.80
53926;DHT22;39836;52.754;6.866;2022-07-12T13:57:38;29.80;65.60
53926;DHT22;39836;52.754;6.866;2022-07-12T14:00:15;29.70;65.90
53926;DHT22;39836;52.754;6.866;2022-07-12T14:02:47;29.60;66.30
53926;DHT22;39836;52.754;6.866;2022-07-12T14:05:14;29.50;66.00
53926;DHT22;39836;52.754;6.866;2022-07-12T14:07:41;29.50;65.40
53926;DHT22;39836;52.754;6.866;2022-07-12T14:10:08;29.40;64.60
53926;DHT22;39836;52.754;6.866;2022-07-12T14:12:35;29.20;65.00
53926;DHT22;39836;52.754;6.866;2022-07-12T14:15:01;29.20;65.20
53926;DHT22;39836;52.754;6.866;2022-07-12T14:18:03;29.10;65.20
53926;DHT22;39836;52.754;6.866;2022-07-12T14:20:30;29.00;64.90
53926;DHT22;39836;52.754;6.866;2022-07-12T14:22:55;29.00;64.40
53926;DHT22;39836;52.754;6.866;2022-07-12T14:25:21;29.00;64.80
53926;DHT22;39836;52.754;6.866;2022-07-12T14:27:47;29.00;64.60
53926;DHT22;39836;52.754;6.866;2022-07-12T14:30:13;29.20;65.00
53926;DHT22;39836;52.754;6.866;2022-07-12T14:32:40;29.30;65.10
53926;DHT22;39836;52.754;6.866;2022-07-12T14:35:06;29.30;64.50
53926;DHT22;39836;52.754;6.866;2022-07-12T14:37:36;29.30;64.30
53926;DHT22;39836;52.754;6.866;2022-07-12T14:40:03;29.30;64.20
53926;DHT22;39836;52.754;6.866;2022-07-12T14:42:29;29.10;64.20
53926;DHT22;39836;52.754;6.866;2022-07-12T14:44:55;29.00;64.20
53926;DHT22;39836;52.754;6.866;2022-07-12T14:47:22;28.90;64.40
53926;DHT22;39836;52.754;6.866;2022-07-12T14:49:48;28.90;64.50
53926;DHT22;39836;52.754;6.866;2022-07-12T14:52:14;29.00;64.20
53926;DHT22;39836;52.754;6.866;2022-07-12T14:54:39;28.80;64.20
53926;DHT22;39836;52.754;6.866;2022-07-12T14:57:05;28.80;64.10
53926;DHT22;39836;52.754;6.866;2022-07-12T14:59:31;28.80;64.30
53926;DHT22;39836;52.754;6.866;2022-07-12T15:01:56;28.80;64.20
53926;DHT22;39836;52.754;6.866;2022-07-12T15:04:22;28.70;64.40
53926;DHT22;39836;52.754;6.866;2022-07-12T15:06:49;28.70;64.60
53926;DHT22;39836;52.754;6.866;2022-07-12T15:09:14;28.60;64.70
53926;DHT22;39836;52.754;6.866;2022-07-12T15:11:41;28.60;64.50
53926;DHT22;39836;52.754;6.866;2022-07-12T15:14:06;28.50;64.70
53926;DHT22;39836;52.754;6.866;2022-07-12T15:16:32;28.40;64.60
53926;DHT22;39836;52.754;6.866;2022-07-12T15:18:58;28.40;64.60
53926;DHT22;39836;52.754;6.866;2022-07-12T15:21:24;28.40;64.70
53926;DHT22;39836;52.754;6.866;2022-07-12T15:23:50;28.40;64.70
53926;DHT22;39836;52.754;6.866;2022-07-12T15:26:16;28.30;65.20
53926;DHT22;39836;52.754;6.866;2022-07-12T15:28:51;28.30;65.30
53926;DHT22;39836;52.754;6.866;2022-07-12T15:31:17;28.30;65.50
53926;DHT22;39836;52.754;6.866;2022-07-12T15:33:42;28.40;65.30
53926;DHT22;39836;52.754;6.866;2022-07-12T15:36:08;28.50;65.70
53926;DHT22;39836;52.754;6.866;2022-07-12T15:38:34;28.50;65.40
53926;DHT22;39836;52.754;6.866;2022-07-12T15:41:00;28.60;65.50
53926;DHT22;39836;52.754;6.866;2022-07-12T15:43:25;28.60;65.50
53926;DHT22;39836;52.754;6.866;2022-07-12T15:45:51;28.80;65.70
53926;DHT22;39836;52.754;6.866;2022-07-12T15:48:17;28.90;65.90
53926;DHT22;39836;52.754;6.866;2022-07-12T15:50:43;28.80;65.60
53926;DHT22;39836;52.754;6.866;2022-07-12T15:53:09;28.80;65.00
53926;DHT22;39836;52.754;6.866;2022-07-12T15:55:58;28.70;64.70
53926;DHT22;39836;52.754;6.866;2022-07-12T15:58:32;28.70;64.80
53926;DHT22;39836;52.754;6.866;2022-07-12T16:00:58;28.60;64.90
53926;DHT22;39836;52.754;6.866;2022-07-12T16:03:28;28.40;65.10
53926;DHT22;39836;52.754;6.866;2022-07-12T16:05:54;28.30;65.20
53926;DHT22;39836;52.754;6.866;2022-07-12T16:08:21;28.20;65.60
53926;DHT22;39836;52.754;6.866;2022-07-12T16:10:47;28.10;65.50
53926;DHT22;39836;52.754;6.866;2022-07-12T16:13:13;28.10;65.60
53926;DHT22;39836;52.754;6.866;2022-07-12T16:15:40;28.10;65.40
53926;DHT22;39836;52.754;6.866;2022-07-12T16:18:06;27.90;65.30
53926;DHT22;39836;52.754;6.866;2022-07-12T16:20:32;27.90;65.50
53926;DHT22;39836;52.754;6.866;2022-07-12T16:22:59;27.90;65.50
53926;DHT22;39836;52.754;6.866;2022-07-12T16:25:25;27.80;65.70
53926;DHT22;39836;52.754;6.866;2022-07-12T16:27:50;27.70;65.60
53926;DHT22;39836;52.754;6.866;2022-07-12T16:30:19;27.70;65.80
53926;DHT22;39836;52.754;6.866;2022-07-12T16:32:45;27.60;65.80
53926;DHT22;39836;52.754;6.866;2022-07-12T16:35:11;27.60;65.90
53926;DHT22;39836;52.754;6.866;2022-07-12T16:37:36;27.60;66.10
53926;DHT22;39836;52.754;6.866;2022-07-12T16:40:02;27.60;66.20
53926;DHT22;39836;52.754;6.866;2022-07-12T16:42:28;27.50;66.10
53926;DHT22;39836;52.754;6.866;2022-07-12T16:44:54;27.40;66.10
53926;DHT22;39836;52.754;6.866;2022-07-12T16:47:19;27.50;66.30
53926;DHT22;39836;52.754;6.866;2022-07-12T16:49:45;27.50;66.50
53926;DHT22;39836;52.754;6.866;2022-07-12T16:52:10;27.50;66.70
53926;DHT22;39836;52.754;6.866;2022-07-12T16:54:36;27.50;66.60
53926;DHT22;39836;52.754;6.866;2022-07-12T16:57:02;27.40;66.90
53926;DHT22;39836;52.754;6.866;2022-07-12T16:59:28;27.30;67.20
53926;DHT22;39836;52.754;6.866;2022-07-12T17:01:53;27.20;67.30
53926;DHT22;39836;52.754;6.866;2022-07-12T17:04:19;27.10;67.40
53926;DHT22;39836;52.754;6.866;2022-07-12T17:06:45;27.00;67.40
53926;DHT22;39836;52.754;6.866;2022-07-12T17:09:11;27.00;67.40
53926;DHT22;39836;52.754;6.866;2022-07-12T17:11:36;26.90;67.90
53926;DHT22;39836;52.754;6.866;2022-07-12T17:14:02;26.90;67.60
53926;DHT22;39836;52.754;6.866;2022-07-12T17:16:28;26.80;67.40
53926;DHT22;39836;52.754;6.866;2022-07-12T17:18:53;26.80;67.50
53926;DHT22;39836;52.754;6.866;2022-07-12T17:21:27;26.70;67.40
53926;DHT22;39836;52.754;6.866;2022-07-12T17:23:52;26.70;67.50
53926;DHT22;39836;52.754;6.866;2022-07-12T17:26:18;26.60;67.40
53926;DHT22;39836;52.754;6.866;2022-07-12T17:28:43;26.50;67.20
53926;DHT22;39836;52.754;6.866;2022-07-12T17:31:09;26.40;67.70
53926;DHT22;39836;52.754;6.866;2022-07-12T17:33:35;26.30;68.00
53926;DHT22;39836;52.754;6.866;2022-07-12T17:36:00;26.30;68.30
53926;DHT22;39836;52.754;6.866;2022-07-12T17:38:26;26.30;68.40
53926;DHT22;39836;52.754;6.866;2022-07-12T17:40:53;26.20;68.40
53926;DHT22;39836;52.754;6.866;2022-07-12T17:43:20;26.30;68.40
53926;DHT22;39836;52.754;6.866;2022-07-12T17:45:45;26.20;68.40
53926;DHT22;39836;52.754;6.866;2022-07-12T17:48:11;26.20;68.40
53926;DHT22;39836;52.754;6.866;2022-07-12T17:50:37;26.20;68.50
53926;DHT22;39836;52.754;6.866;2022-07-12T17:53:02;26.20;68.60
53926;DHT22;39836;52.754;6.866;2022-07-12T17:55:28;26.10;68.60
53926;DHT22;39836;52.754;6.866;2022-07-12T17:57:54;26.10;68.90
53926;DHT22;39836;52.754;6.866;2022-07-12T18:00:38;26.10;69.20
53926;DHT22;39836;52.754;6.866;2022-07-12T18:03:04;26.10;69.20
53926;DHT22;39836;52.754;6.866;2022-07-12T18:05:30;26.00;69.00
53926;DHT22;39836;52.754;6.866;2022-07-12T18:07:55;26.10;69.10
53926;DHT22;39836;52.754;6.866;2022-07-12T18:10:21;26.10;69.10
53926;DHT22;39836;52.754;6.866;2022-07-12T18:12:47;26.00;69.00
53926;DHT22;39836;52.754;6.866;2022-07-12T18:15:31;26.00;69.00
53926;DHT22;39836;52.754;6.866;2022-07-12T18:17:57;26.00;69.40
53926;DHT22;39836;52.754;6.866;2022-07-12T18:20:27;25.90;69.70
53926;DHT22;39836;52.754;6.866;2022-07-12T18:22:53;25.90;70.00
53926;DHT22;39836;52.754;6.866;2022-07-12T18:25:18;25.90;69.70
53926;DHT22;39836;52.754;6.866;2022-07-12T18:27:45;25.80;69.40
53926;DHT22;39836;52.754;6.866;2022-07-12T18:30:11;25.90;68.90
53926;DHT22;39836;52.754;6.866;2022-07-12T18:32:38;25.80;69.00
53926;DHT22;39836;52.754;6.866;2022-07-12T18:35:05;25.90;68.90
53926;DHT22;39836;52.754;6.866;2022-07-12T18:37:31;25.80;68.70
53926;DHT22;39836;52.754;6.866;2022-07-12T18:39:57;25.80;68.60
53926;DHT22;39836;52.754;6.866;2022-07-12T18:42:23;25.80;68.60
53926;DHT22;39836;52.754;6.866;2022-07-12T18:44:49;25.70;68.70
53926;DHT22;39836;52.754;6.866;2022-07-12T18:47:14;25.60;69.20
53926;DHT22;39836;52.754;6.866;2022-07-12T18:49:40;25.50;69.70
53926;DHT22;39836;52.754;6.866;2022-07-12T18:52:06;25.40;69.90
53926;DHT22;39836;52.754;6.866;2022-07-12T18:54:34;25.40;70.20
53926;DHT22;39836;52.754;6.866;2022-07-12T18:56:59;25.30;70.30
53926;DHT22;39836;52.754;6.866;2022-07-12T18:59:25;25.30;70.40
53926;DHT22;39836;52.754;6.866;2022-07-12T19:01:51;25.20;70.80
53926;DHT22;39836;52.754;6.866;2022-07-12T19:04:17;25.10;71.30
53926;DHT22;39836;52.754;6.866;2022-07-12T19:06:43;25.00;71.80
53926;DHT22;39836;52.754;6.866;2022-07-12T19:09:08;24.90;72.70
53926;DHT22;39836;52.754;6.866;2022-07-12T19:11:36;24.80;73.40
53926;DHT22;39836;52.754;6.866;2022-07-12T19:14:02;24.70;73.90
53926;DHT22;39836;52.754;6.866;2022-07-12T19:16:27;24.60;74.10
53926;DHT22;39836;52.754;6.866;2022-07-12T19:18:53;24.40;74.30
53926;DHT22;39836;52.754;6.866;2022-07-12T19:21:20;24.40;74.30
53926;DHT22;39836;52.754;6.866;2022-07-12T19:23:45;24.30;74.00
53926;DHT22;39836;52.754;6.866;2022-07-12T19:26:11;24.30;73.90
53926;DHT22;39836;52.754;6.866;2022-07-12T19:28:37;24.20;73.90
53926;DHT22;39836;52.754;6.866;2022-07-12T19:31:03;24.10;74.00
53926;DHT22;39836;52.754;6.866;2022-07-12T19:33:28;23.90;74.20
53926;DHT22;39836;52.754;6.866;2022-07-12T19:35:54;23.80;74.40
53926;DHT22;39836;52.754;6.866;2022-07-12T19:38:20;23.70;74.60
53926;DHT22;39836;52.754;6.866;2022-07-12T19:40:45;23.60;74.70
53926;DHT22;39836;52.754;6.866;2022-07-12T19:43:11;23.60;75.10
53926;DHT22;39836;52.754;6.866;2022-07-12T19:45:38;23.60;75.00
53926;DHT22;39836;52.754;6.866;2022-07-12T19:48:04;23.60;74.80
53926;DHT22;39836;52.754;6.866;2022-07-12T19:50:31;23.60;74.70
53926;DHT22;39836;52.754;6.866;2022-07-12T19:52:57;23.60;74.60
53926;DHT22;39836;52.754;6.866;2022-07-12T19:55:25;23.60;74.50
53926;DHT22;39836;52.754;6.866;2022-07-12T19:57:51;23.50;74.40
53926;DHT22;39836;52.754;6.866;2022-07-12T20:00:16;23.50;74.50
53926;DHT22;39836;52.754;6.866;2022-07-12T20:02:42;23.40;74.60
53926;DHT22;39836;52.754;6.866;2022-07-12T20:05:08;23.40;74.90
53926;DHT22;39836;52.754;6.866;2022-07-12T20:07:35;23.30;75.20
53926;DHT22;39836;52.754;6.866;2022-07-12T20:10:01;23.20;75.30
53926;DHT22;39836;52.754;6.866;2022-07-12T20:12:26;23.20;75.30
53926;DHT22;39836;52.754;6.866;2022-07-12T20:14:52;23.20;75.20
53926;DHT22;39836;52.754;6.866;2022-07-12T20:17:18;23.20;75.20
53926;DHT22;39836;52.754;6.866;2022-07-12T20:19:43;23.10;75.30
53926;DHT22;39836;52.754;6.866;2022-07-12T20:22:09;23.10;75.70
53926;DHT22;39836;52.754;6.866;2022-07-12T20:24:34;23.00;76.10
53926;DHT22;39836;52.754;6.866;2022-07-12T20:27:00;22.80;76.50
53926;DHT22;39836;52.754;6.866;2022-07-12T20:29:26;22.70;76.60
53926;DHT22;39836;52.754;6.866;2022-07-12T20:31:51;22.60;76.80
53926;DHT22;39836;52.754;6.866;2022-07-12T20:34:17;22.50;77.00
53926;DHT22;39836;52.754;6.866;2022-07-12T20:36:59;22.40;77.50
53926;DHT22;39836;52.754;6.866;2022-07-12T20:39:27;22.40;77.80
53926;DHT22;39836;52.754;6.866;2022-07-12T20:41:54;22.40;77.70
53926;DHT22;39836;52.754;6.866;2022-07-12T20:44:21;22.40;77.80
53926;DHT22;39836;52.754;6.866;2022-07-12T20:46:48;22.40;77.70
53926;DHT22;39836;52.754;6.866;2022-07-12T20:49:14;22.30;77.60
53926;DHT22;39836;52.754;6.866;2022-07-12T20:51:45;22.30;77.80
53926;DHT22;39836;52.754;6.866;2022-07-12T20:54:15;22.20;77.90
53926;DHT22;39836;52.754;6.866;2022-07-12T20:56:41;22.20;77.90
53926;DHT22;39836;52.754;6.866;2022-07-12T20:59:08;22.10;77.70
53926;DHT22;39836;52.754;6.866;2022-07-12T21:01:44;22.10;77.80
53926;DHT22;39836;52.754;6.866;2022-07-12T21:04:11;22.10;78.10
53926;DHT22;39836;52.754;6.866;2022-07-12T21:06:38;22.00;78.00
53926;DHT22;39836;52.754;6.866;2022-07-12T21:09:04;22.00;77.90
53926;DHT22;39836;52.754;6.866;2022-07-12T21:11:32;22.00;77.80
53926;DHT22;39836;52.754;6.866;2022-07-12T21:14:05;22.00;77.80
53926;DHT22;39836;52.754;6.866;2022-07-12T21:16:32;22.10;77.90
53926;DHT22;39836;52.754;6.866;2022-07-12T21:18:58;22.00;77.70
53926;DHT22;39836;52.754;6.866;2022-07-12T21:21:24;22.00;77.60
53926;DHT22;39836;52.754;6.866;2022-07-12T21:23:50;22.00;77.60
53926;DHT22;39836;52.754;6.866;2022-07-12T21:26:16;22.10;77.60
53926;DHT22;39836;52.754;6.866;2022-07-12T21:28:42;22.10;77.50
53926;DHT22;39836;52.754;6.866;2022-07-12T21:31:09;22.00;77.40
53926;DHT22;39836;52.754;6.866;2022-07-12T21:33:35;22.00;77.40
53926;DHT22;39836;52.754;6.866;2022-07-12T21:36:02;22.00;77.40
53926;DHT22;39836;52.754;6.866;2022-07-12T21:38:28;22.10;77.40
53926;DHT22;39836;52.754;6.866;2022-07-12T21:40:54;22.10;77.40
53926;DHT22;39836;52.754;6.866;2022-07-12T21:43:20;22.00;77.50
53926;DHT22;39836;52.754;6.866;2022-07-12T21:45:46;22.00;77.60
